Time;durP1;ratioP1;P1;durP2;ratioP2;P2;SDS_P1;SDS_P2;PMS_P1;PMS_P2;Temp;Humidity;BMP_temperature;BMP_pressure;BME280_temperature;BME280_humidity;BME280_pressure;Samples;Min_cycle;Max_cycle;Signal;HPM_P1;HPM_P2
2024/01/21 00:02:01;;;;;;;;;;;;;;;;;;5111155;28;20360;-64
2024/01/21 00:04:27;;;;;;;;;;;;;;;;;;5117493;27;20441;-65
2024/01/21 00:06:53;;;;;;;;;;;;;;;;;;5103545;27;19927;-65
2024/01/21 00:09:19;;;;;;;;;;;;;;;;;;5109561;28;19919;-65
2024/01/21 00:11:45;;;;;;;;;;;;;;;;;;5111128;28;20650;-65
2024/01/21 00:14:11;;;;;;;;;;;;;;;;;;5108048;28;19934;-65
2024/01/21 00:16:36;;;;;;;;;;;;;;;;;;5076141;28;19945;-65
2024/01/21 00:19:03;;;;;;;;;;;;;;;;;;5094855;28;19927;-66
2024/01/21 00:21:29;;;;;;;;;;;;;;;;;;5112953;27;19934;-66
2024/01/21 00:23:55;;;;;;;;;;;;;;;;;;5113355;27;19927;-66
2024/01/21 00:26:21;;;;;;;;;;;;;;;;;;5087577;28;19927;-66
2024/01/21 00:28:47;;;;;;;;;;;;;;;;;;5112119;28;19927;-66
2024/01/21 00:31:13;;;;;;;;;;;;;;;;;;5112162;28;19924;-65
2024/01/21 00:33:39;;;;;;;;;;;;;;;;;;5111352;27;19920;-66
2024/01/21 00:36:05;;;;;;;;;;;;;;;;;;5110288;27;19923;-66
2024/01/21 00:38:31;;;;;;;;;;;;;;;;;;5116593;27;19972;-66
2024/01/21 00:40:57;;;;;;;;;;;;;;;;;;5111103;27;20011;-65
2024/01/21 00:43:23;;;;;;;;;;;;;;;;;;5105117;27;20031;-66
2024/01/21 00:45:51;;;;;;;;;;;;;;;;;;5112255;28;19976;-66
2024/01/21 00:48:17;;;;;;;;;;;;;;;;;;5112215;28;20711;-66
2024/01/21 00:50:43;;;;;;;;;;;;;;;;;;5111101;28;20037;-66
2024/01/21 00:53:09;;;;;;;;;;;;;;;;;;5101567;28;20060;-66
2024/01/21 00:55:35;;;;;;;;;;;;;;;;;;5091646;28;20016;-66
2024/01/21 00:58:00;;;;;;;;;;;;;;;;;;5108674;28;20089;-64
2024/01/21 01:00:27;;;;;;;;;;;;;;;;;;5106655;27;20672;-65
2024/01/21 01:02:53;;;;;;;;;;;;;;;;;;5087555;28;19919;-65
2024/01/21 01:05:19;;;;;;;;;;;;;;;;;;5118138;27;19927;-65
2024/01/21 01:07:44;;;;;;;;;;;;;;;;;;5114805;27;19924;-65
2024/01/21 01:10:10;;;;;;;;;;;;;;;;;;5107524;28;20465;-66
2024/01/21 01:12:36;;;;;;;;;;;;;;;;;;5113267;28;20308;-66
2024/01/21 01:15:02;;;;;;;;;;;;;;;;;;5092991;28;20335;-66
2024/01/21 01:17:28;;;;;;;;;;;;;;;;;;5107101;28;19924;-66
2024/01/21 01:19:54;;;;;;;;;;;;;;;;;;5107207;28;19927;-66
2024/01/21 01:22:20;;;;;;;;;;;;;;;;;;5113492;28;19924;-66
2024/01/21 01:24:46;;;;;;;;;;;;;;;;;;5108794;28;19920;-66
2024/01/21 01:27:12;;;;;;;;;;;;;;;;;;5111694;27;19938;-66
2024/01/21 01:29:38;;;;;;;;;;;;;;;;;;5090574;28;19928;-66
2024/01/21 01:32:05;;;;;;;;;;;;;;;;;;5109049;28;19928;-66
2024/01/21 01:34:31;;;;;;;;;;;;;;;;;;5108581;27;20395;-66
2024/01/21 01:36:57;;;;;;;;;;;;;;;;;;5106056;27;20007;-66
2024/01/21 01:39:23;;;;;;;;;;;;;;;;;;5107396;27;20003;-66
2024/01/21 01:41:49;;;;;;;;;;;;;;;;;;5111826;28;19924;-66
2024/01/21 01:44:15;;;;;;;;;;;;;;;;;;5085391;27;19935;-66
2024/01/21 01:46:40;;;;;;;;;;;;;;;;;;5112358;28;19959;-65
2024/01/21 01:49:06;;;;;;;;;;;;;;;;;;5109299;27;19981;-65
2024/01/21 01:51:33;;;;;;;;;;;;;;;;;;5106154;27;20343;-65
2024/01/21 01:53:59;;;;;;;;;;;;;;;;;;5101661;28;19920;-65
2024/01/21 01:56:25;;;;;;;;;;;;;;;;;;5088443;28;19927;-65
2024/01/21 01:58:50;;;;;;;;;;;;;;;;;;5106343;28;20316;-65
2024/01/21 02:01:16;;;;;;;;;;;;;;;;;;5107807;27;19930;-65
2024/01/21 02:03:42;;;;;;;;;;;;;;;;;;5112164;28;19926;-65
2024/01/21 02:06:08;;;;;;;;;;;;;;;;;;5088772;28;19927;-65
2024/01/21 02:08:34;;;;;;;;;;;;;;;;;;5114832;27;20226;-65
2024/01/21 02:11:00;;;;;;;;;;;;;;;;;;5103865;28;19928;-65
2024/01/21 02:13:26;;;;;;;;;;;;;;;;;;5111981;28;19920;-64
2024/01/21 02:15:52;;;;;;;;;;;;;;;;;;5092393;28;19926;-64
2024/01/21 02:18:18;;;;;;;;;;;;;;;;;;5108814;28;20274;-65
2024/01/21 02:20:44;;;;;;;;;;;;;;;;;;5110206;27;20030;-65
2024/01/21 02:23:10;;;;;;;;;;;;;;;;;;5110234;27;20122;-65
2024/01/21 02:25:36;;;;;;;;;;;;;;;;;;5113118;27;19949;-65
2024/01/21 02:28:02;;;;;;;;;;;;;;;;;;5109431;28;19924;-65
2024/01/21 02:30:28;;;;;;;;;;;;;;;;;;5110678;28;20267;-65
2024/01/21 02:32:54;;;;;;;;;;;;;;;;;;5110560;28;19931;-65
2024/01/21 02:35:20;;;;;;;;;;;;;;;;;;5114310;27;19920;-65
2024/01/21 02:37:46;;;;;;;;;;;;;;;;;;5113290;27;19923;-65
2024/01/21 02:40:12;;;;;;;;;;;;;;;;;;5109671;27;19924;-65
2024/01/21 02:42:37;;;;;;;;;;;;;;;;;;5106445;27;20339;-65
2024/01/21 02:45:03;;;;;;;;;;;;;;;;;;5105775;28;19932;-65
2024/01/21 02:47:29;;;;;;;;;;;;;;;;;;5102599;27;19924;-65
2024/01/21 02:49:55;;;;;;;;;;;;;;;;;;5107921;28;19919;-64
2024/01/21 02:52:21;;;;;;;;;;;;;;;;;;5111345;28;19946;-65
2024/01/21 02:54:47;;;;;;;;;;;;;;;;;;5093059;28;19931;-66
2024/01/21 02:57:13;;;;;;;;;;;;;;;;;;5134177;22;19927;-69
2024/01/21 02:59:39;;;;;;;;;;;;;;;;;;5123771;27;19930;-69
2024/01/21 03:02:05;;;;;;;;;;;;;;;;;;5146358;27;20275;-67
2024/01/21 03:04:31;;;;;;;;;;;;;;;;;;5145446;27;20329;-67
2024/01/21 03:06:57;;;;;;;;;;;;;;;;;;5146455;27;19927;-68
2024/01/21 03:09:23;;;;;;;;;;;;;;;;;;5142178;27;19926;-69
2024/01/21 03:11:48;;;;;;;;;;;;;;;;;;5148309;27;20287;-68
2024/01/21 03:14:14;;;;;;;;;;;;;;;;;;5126247;27;19923;-69
2024/01/21 03:16:40;;;;;;;;;;;;;;;;;;5147770;27;19946;-69
2024/01/21 03:19:06;;;;;;;;;;;;;;;;;;5146061;27;20382;-69
2024/01/21 03:21:32;;;;;;;;;;;;;;;;;;5149473;27;19919;-69
2024/01/21 03:23:58;;;;;;;;;;;;;;;;;;5148948;27;19926;-69
2024/01/21 03:26:24;;;;;;;;;;;;;;;;;;5146400;27;20450;-69
2024/01/21 03:28:50;;;;;;;;;;;;;;;;;;5145293;27;19919;-69
2024/01/21 03:31:16;;;;;;;;;;;;;;;;;;5146249;27;19927;-69
2024/01/21 03:33:42;;;;;;;;;;;;;;;;;;5147014;27;19923;-69
2024/01/21 03:36:08;;;;;;;;;;;;;;;;;;5148915;27;19983;-69
2024/01/21 03:38:34;;;;;;;;;;;;;;;;;;5149926;27;19964;-69
2024/01/21 03:41:00;;;;;;;;;;;;;;;;;;5141880;27;19923;-69
2024/01/21 03:43:26;;;;;;;;;;;;;;;;;;5145623;27;19927;-68
2024/01/21 03:45:52;;;;;;;;;;;;;;;;;;5148403;27;20256;-68
2024/01/21 03:48:18;;;;;;;;;;;;;;;;;;5145089;27;19923;-69
2024/01/21 03:50:44;;;;;;;;;;;;;;;;;;5150873;27;19930;-68
2024/01/21 03:53:10;;;;;;;;;;;;;;;;;;5128098;27;19922;-69
2024/01/21 03:55:35;;;;;;;;;;;;;;;;;;5125645;27;19919;-70
2024/01/21 03:58:01;;;;;;;;;;;;;;;;;;5145095;27;20324;-69
2024/01/21 04:00:27;;;;;;;;;;;;;;;;;;5141158;27;19931;-69
2024/01/21 04:02:53;;;;;;;;;;;;;;;;;;5151147;27;19923;-69
2024/01/21 04:05:19;;;;;;;;;;;;;;;;;;5145567;27;19919;-69
2024/01/21 04:07:45;;;;;;;;;;;;;;;;;;5119660;27;19923;-69
2024/01/21 04:10:11;;;;;;;;;;;;;;;;;;5128763;27;20383;-69
2024/01/21 04:12:37;;;;;;;;;;;;;;;;;;5145742;27;19931;-69
2024/01/21 04:15:03;;;;;;;;;;;;;;;;;;5147114;27;19919;-69
2024/01/21 04:17:29;;;;;;;;;;;;;;;;;;5147244;27;20014;-69
2024/01/21 04:19:55;;;;;;;;;;;;;;;;;;5133807;27;20617;-69
2024/01/21 04:22:21;;;;;;;;;;;;;;;;;;5147666;27;19962;-69
2024/01/21 04:24:47;;;;;;;;;;;;;;;;;;5153988;27;20423;-69
2024/01/21 04:27:13;;;;;;;;;;;;;;;;;;5111355;27;20469;-69
2024/01/21 04:29:39;;;;;;;;;;;;;;;;;;5149404;27;19923;-69
2024/01/21 04:32:05;;;;;;;;;;;;;;;;;;5149671;27;19929;-69
2024/01/21 04:34:31;;;;;;;;;;;;;;;;;;5148870;27;20291;-69
2024/01/21 04:36:57;;;;;;;;;;;;;;;;;;5149827;27;20681;-69
2024/01/21 04:39:23;;;;;;;;;;;;;;;;;;5149401;27;19930;-69
2024/01/21 04:41:49;;;;;;;;;;;;;;;;;;5147890;27;19919;-69
2024/01/21 04:44:15;;;;;;;;;;;;;;;;;;5152932;27;19926;-69
2024/01/21 04:46:41;;;;;;;;;;;;;;;;;;5146521;27;20041;-69
2024/01/21 04:49:07;;;;;;;;;;;;;;;;;;5151139;27;20035;-69
2024/01/21 04:51:35;;;;;;;;;;;;;;;;;;5132245;27;20412;-68
2024/01/21 04:54:00;;;;;;;;;;;;;;;;;;5152449;27;19987;-68
2024/01/21 04:56:26;;;;;;;;;;;;;;;;;;5150162;27;20463;-68
2024/01/21 04:58:52;;;;;;;;;;;;;;;;;;5151963;27;19919;-68
2024/01/21 05:01:18;;;;;;;;;;;;;;;;;;5151169;27;20869;-68
2024/01/21 05:03:44;;;;;;;;;;;;;;;;;;5152509;27;19973;-68
2024/01/21 05:06:10;;;;;;;;;;;;;;;;;;5152155;27;20323;-69
2024/01/21 05:08:36;;;;;;;;;;;;;;;;;;5131537;27;20161;-69
2024/01/21 05:11:03;;;;;;;;;;;;;;;;;;5152134;27;19922;-69
2024/01/21 05:13:29;;;;;;;;;;;;;;;;;;5125012;27;20002;-69
2024/01/21 05:15:54;;;;;;;;;;;;;;;;;;5151132;27;20005;-70
2024/01/21 05:18:20;;;;;;;;;;;;;;;;;;5133419;27;19966;-69
2024/01/21 05:20:47;;;;;;;;;;;;;;;;;;5127242;27;20283;-69
2024/01/21 05:23:12;;;;;;;;;;;;;;;;;;5148549;27;19927;-69
2024/01/21 05:25:38;;;;;;;;;;;;;;;;;;5149532;27;19930;-69
2024/01/21 05:28:04;;;;;;;;;;;;;;;;;;5135492;27;19938;-69
2024/01/21 05:30:30;;;;;;;;;;;;;;;;;;5127652;27;19924;-69
2024/01/21 05:32:56;;;;;;;;;;;;;;;;;;5150396;27;19926;-68
2024/01/21 05:35:22;;;;;;;;;;;;;;;;;;5132632;27;20391;-68
2024/01/21 05:37:48;;;;;;;;;;;;;;;;;;5149795;27;20384;-69
2024/01/21 05:40:14;;;;;;;;;;;;;;;;;;5132128;27;20014;-69
2024/01/21 05:42:40;;;;;;;;;;;;;;;;;;5151264;27;20023;-69
2024/01/21 05:45:06;;;;;;;;;;;;;;;;;;5146368;27;20002;-69
2024/01/21 05:47:32;;;;;;;;;;;;;;;;;;5150505;27;19927;-69
2024/01/21 05:49:58;;;;;;;;;;;;;;;;;;5150531;27;19927;-69
2024/01/21 05:52:24;;;;;;;;;;;;;;;;;;5130955;27;19919;-69
2024/01/21 05:54:50;;;;;;;;;;;;;;;;;;5132766;27;20363;-69
2024/01/21 05:57:15;;;;;;;;;;;;;;;;;;5149997;27;19923;-69
2024/01/21 05:59:41;;;;;;;;;;;;;;;;;;5149557;27;19925;-69
2024/01/21 06:02:10;;;;;;;;;;;;;;;;;;5143737;27;19971;-69
2024/01/21 06:04:36;;;;;;;;;;;;;;;;;;5123040;27;19958;-69
2024/01/21 06:07:02;;;;;;;;;;;;;;;;;;5125118;27;21147;-69
2024/01/21 06:09:28;;;;;;;;;;;;;;;;;;5146466;27;19939;-69
2024/01/21 06:11:54;;;;;;;;;;;;;;;;;;5150330;27;19926;-69
2024/01/21 06:14:20;;;;;;;;;;;;;;;;;;5131415;27;19927;-69
2024/01/21 06:16:45;;;;;;;;;;;;;;;;;;5148170;27;20290;-69
2024/01/21 06:19:12;;;;;;;;;;;;;;;;;;5151592;27;19919;-69
2024/01/21 06:21:38;;;;;;;;;;;;;;;;;;5145055;27;20272;-69
2024/01/21 06:24:03;;;;;;;;;;;;;;;;;;5147137;27;19930;-69
2024/01/21 06:26:29;;;;;;;;;;;;;;;;;;5129442;27;19926;-69
2024/01/21 06:28:55;;;;;;;;;;;;;;;;;;5152106;27;19950;-69
2024/01/21 06:31:21;;;;;;;;;;;;;;;;;;5144760;27;20249;-70
2024/01/21 06:33:48;;;;;;;;;;;;;;;;;;5150858;27;19927;-70
2024/01/21 06:36:14;;;;;;;;;;;;;;;;;;5142855;27;19919;-68
2024/01/21 06:38:40;;;;;;;;;;;;;;;;;;5150057;27;19919;-68
2024/01/21 06:41:06;;;;;;;;;;;;;;;;;;5128456;27;19922;-68
2024/01/21 06:43:32;;;;;;;;;;;;;;;;;;5144636;27;19967;-68
2024/01/21 06:45:58;;;;;;;;;;;;;;;;;;5141406;27;20054;-68
2024/01/21 06:48:23;;;;;;;;;;;;;;;;;;5149071;27;19962;-68
2024/01/21 06:50:51;;;;;;;;;;;;;;;;;;5131862;27;19969;-69
2024/01/21 06:53:17;;;;;;;;;;;;;;;;;;5144484;27;20547;-69
2024/01/21 06:55:43;;;;;;;;;;;;;;;;;;5149655;27;19975;-69
2024/01/21 06:58:08;;;;;;;;;;;;;;;;;;5131368;27;19946;-69
2024/01/21 07:00:34;;;;;;;;;;;;;;;;;;5134633;27;20357;-69
2024/01/21 07:03:00;;;;;;;;;;;;;;;;;;5146599;27;19919;-69
2024/01/21 07:05:29;;;;;;;;;;;;;;;;;;5146357;27;20343;-69
2024/01/21 07:07:56;;;;;;;;;;;;;;;;;;5148781;27;20010;-69
2024/01/21 07:10:23;;;;;;;;;;;;;;;;;;5151353;27;20531;-69
2024/01/21 07:12:49;;;;;;;;;;;;;;;;;;5130685;27;19965;-69
2024/01/21 07:15:15;;;;;;;;;;;;;;;;;;5150698;27;19962;-69
2024/01/21 07:17:41;;;;;;;;;;;;;;;;;;5145794;27;19929;-69
2024/01/21 07:20:10;;;;;;;;;;;;;;;;;;5140534;27;19954;-69
2024/01/21 07:22:36;;;;;;;;;;;;;;;;;;5142349;27;19950;-69
2024/01/21 07:25:02;;;;;;;;;;;;;;;;;;5131751;27;20053;-69
2024/01/21 07:27:28;;;;;;;;;;;;;;;;;;5114543;27;19923;-69
2024/01/21 07:29:54;;;;;;;;;;;;;;;;;;5144981;27;20348;-69
2024/01/21 07:32:20;;;;;;;;;;;;;;;;;;5145669;27;19924;-69
2024/01/21 07:34:46;;;;;;;;;;;;;;;;;;5145373;27;19930;-69
2024/01/21 07:37:12;;;;;;;;;;;;;;;;;;5150947;27;19929;-69
2024/01/21 07:39:38;;;;;;;;;;;;;;;;;;5152968;27;20290;-69
2024/01/21 07:42:04;;;;;;;;;;;;;;;;;;5141090;27;19927;-69
2024/01/21 07:44:29;;;;;;;;;;;;;;;;;;5141907;27;19927;-68
2024/01/21 07:46:55;;;;;;;;;;;;;;;;;;5131805;27;19927;-69
2024/01/21 07:49:21;;;;;;;;;;;;;;;;;;5153003;27;19965;-69
2024/01/21 07:51:47;;;;;;;;;;;;;;;;;;5136070;27;20287;-69
2024/01/21 07:54:13;;;;;;;;;;;;;;;;;;5160423;27;20655;-69
2024/01/21 07:56:39;;;;;;;;;;;;;;;;;;5156293;27;20010;-68
2024/01/21 07:59:05;;;;;;;;;;;;;;;;;;5133557;27;20447;-68
2024/01/21 08:01:31;;;;;;;;;;;;;;;;;;5153288;27;20041;-69
2024/01/21 08:03:57;;;;;;;;;;;;;;;;;;5147410;27;20041;-69
2024/01/21 08:06:23;;;;;;;;;;;;;;;;;;5147223;27;20249;-69
2024/01/21 08:08:49;;;;;;;;;;;;;;;;;;5124237;27;19920;-69
2024/01/21 08:11:16;;;;;;;;;;;;;;;;;;5150773;27;19977;-69
2024/01/21 08:13:42;;;;;;;;;;;;;;;;;;5136678;27;20003;-68
2024/01/21 08:16:08;;;;;;;;;;;;;;;;;;5154753;27;19964;-69
2024/01/21 08:18:34;;;;;;;;;;;;;;;;;;5156009;27;20523;-65
2024/01/21 08:21:00;;;;;;;;;;;;;;;;;;5153938;27;19929;-69
2024/01/21 08:23:26;;;;;;;;;;;;;;;;;;5152081;27;19919;-69
2024/01/21 08:25:52;;;;;;;;;;;;;;;;;;5137123;27;19926;-69
2024/01/21 08:28:17;;;;;;;;;;;;;;;;;;5151868;27;19934;-68
2024/01/21 08:30:43;;;;;;;;;;;;;;;;;;5155744;27;19927;-68
2024/01/21 08:33:09;;;;;;;;;;;;;;;;;;5131616;27;20360;-69
2024/01/21 08:35:36;;;;;;;;;;;;;;;;;;5122061;27;19919;-69
2024/01/21 08:38:02;;;;;;;;;;;;;;;;;;5149099;27;19922;-68
2024/01/21 08:40:28;;;;;;;;;;;;;;;;;;5132454;27;20379;-69
2024/01/21 08:42:54;;;;;;;;;;;;;;;;;;5154136;27;20594;-69
2024/01/21 08:45:19;;;;;;;;;;;;;;;;;;5147289;27;20006;-69
2024/01/21 08:47:45;;;;;;;;;;;;;;;;;;5117317;27;20001;-68
2024/01/21 08:50:11;;;;;;;;;;;;;;;;;;5151301;27;19981;-68
2024/01/21 08:52:37;;;;;;;;;;;;;;;;;;5133533;27;19958;-68
2024/01/21 08:55:04;;;;;;;;;;;;;;;;;;5131958;27;19930;-68
2024/01/21 08:57:30;;;;;;;;;;;;;;;;;;5153923;27;19984;-68
2024/01/21 08:59:55;;;;;;;;;;;;;;;;;;5148360;27;20531;-69
2024/01/21 09:02:21;;;;;;;;;;;;;;;;;;5149037;27;19923;-69
2024/01/21 09:04:47;;;;;;;;;;;;;;;;;;5150059;27;19980;-68
2024/01/21 09:07:13;;;;;;;;;;;;;;;;;;5143327;27;19927;-68
2024/01/21 09:09:39;;;;;;;;;;;;;;;;;;5144624;27;20013;-68
2024/01/21 09:12:07;;;;;;;;;;;;;;;;;;5130180;27;20034;-68
2024/01/21 09:14:34;;;;;;;;;;;;;;;;;;5151640;27;19919;-69
2024/01/21 09:17:00;;;;;;;;;;;;;;;;;;5144209;27;19956;-68
2024/01/21 09:19:25;;;;;;;;;;;;;;;;;;5153251;27;19919;-68
2024/01/21 09:21:51;;;;;;;;;;;;;;;;;;5116004;27;19971;-68
2024/01/21 09:24:18;;;;;;;;;;;;;;;;;;5128377;27;19927;-70
2024/01/21 09:26:44;;;;;;;;;;;;;;;;;;5150531;27;19927;-68
2024/01/21 09:29:09;;;;;;;;;;;;;;;;;;5128686;27;19959;-69
2024/01/21 09:31:35;;;;;;;;;;;;;;;;;;5149182;27;20005;-70
2024/01/21 09:34:01;;;;;;;;;;;;;;;;;;5130326;27;19923;-69
2024/01/21 09:36:27;;;;;;;;;;;;;;;;;;5145086;27;19927;-70
2024/01/21 09:38:54;;;;;;;;;;;;;;;;;;5132533;27;19926;-67
2024/01/21 09:41:20;;;;;;;;;;;;;;;;;;5150307;27;20007;-68
2024/01/21 09:43:46;;;;;;;;;;;;;;;;;;5149367;27;19998;-69
2024/01/21 09:46:12;;;;;;;;;;;;;;;;;;5126769;27;20002;-69
2024/01/21 09:48:38;;;;;;;;;;;;;;;;;;5141403;27;20431;-68
2024/01/21 09:51:04;;;;;;;;;;;;;;;;;;5112893;27;20368;-68
2024/01/21 09:53:29;;;;;;;;;;;;;;;;;;5143564;27;19919;-68
2024/01/21 09:55:55;;;;;;;;;;;;;;;;;;5147815;27;19927;-67
2024/01/21 09:58:21;;;;;;;;;;;;;;;;;;5149556;27;19919;-68
2024/01/21 10:00:49;;;;;;;;;;;;;;;;;;5148230;27;19928;-68
2024/01/21 10:03:15;;;;;;;;;;;;;;;;;;5131472;27;20352;-68
2024/01/21 10:05:41;;;;;;;;;;;;;;;;;;5124726;27;19929;-68
2024/01/21 10:08:07;;;;;;;;;;;;;;;;;;5150740;27;20291;-68
2024/01/21 10:10:33;;;;;;;;;;;;;;;;;;5134075;27;19923;-69
2024/01/21 10:12:59;;;;;;;;;;;;;;;;;;5150688;27;19923;-69
2024/01/21 10:15:25;;;;;;;;;;;;;;;;;;5152382;27;20427;-69
2024/01/21 10:17:51;;;;;;;;;;;;;;;;;;5132775;27;19950;-69
2024/01/21 10:20:17;;;;;;;;;;;;;;;;;;5148540;27;19974;-69
2024/01/21 10:22:44;;;;;;;;;;;;;;;;;;5147939;27;19923;-68
2024/01/21 10:25:10;;;;;;;;;;;;;;;;;;5150575;27;19923;-68
2024/01/21 10:27:36;;;;;;;;;;;;;;;;;;5132151;27;19983;-68
2024/01/21 10:30:03;;;;;;;;;;;;;;;;;;5130121;27;20312;-69
2024/01/21 10:32:29;;;;;;;;;;;;;;;;;;5149314;27;20123;-69
2024/01/21 10:34:56;;;;;;;;;;;;;;;;;;5104143;27;20388;-69
2024/01/21 10:37:22;;;;;;;;;;;;;;;;;;5148444;27;19919;-68
2024/01/21 10:39:48;;;;;;;;;;;;;;;;;;5153268;27;19927;-69
2024/01/21 10:42:14;;;;;;;;;;;;;;;;;;5130539;27;19919;-70
2024/01/21 10:44:40;;;;;;;;;;;;;;;;;;5149946;27;21834;-69
2024/01/21 10:47:06;;;;;;;;;;;;;;;;;;5151163;27;20018;-70
2024/01/21 10:49:32;;;;;;;;;;;;;;;;;;5148617;27;20040;-70
2024/01/21 10:51:58;;;;;;;;;;;;;;;;;;5149148;27;19948;-70
2024/01/21 10:54:24;;;;;;;;;;;;;;;;;;5129263;27;20275;-69
2024/01/21 10:56:50;;;;;;;;;;;;;;;;;;5153007;27;20448;-70
2024/01/21 10:59:16;;;;;;;;;;;;;;;;;;5149964;27;20044;-68
2024/01/21 11:01:42;;;;;;;;;;;;;;;;;;5147136;27;19926;-68
2024/01/21 11:04:10;;;;;;;;;;;;;;;;;;5147403;27;19927;-69
2024/01/21 11:06:36;;;;;;;;;;;;;;;;;;5148450;27;19925;-69
2024/01/21 11:09:03;;;;;;;;;;;;;;;;;;5149705;27;20009;-68
2024/01/21 11:11:29;;;;;;;;;;;;;;;;;;5145570;27;19944;-68
2024/01/21 11:13:56;;;;;;;;;;;;;;;;;;5134412;27;19956;-69
2024/01/21 11:16:21;;;;;;;;;;;;;;;;;;5150585;27;20404;-69
2024/01/21 11:18:47;;;;;;;;;;;;;;;;;;5146088;27;20019;-69
2024/01/21 11:21:13;;;;;;;;;;;;;;;;;;5147481;27;19954;-68
2024/01/21 11:23:39;;;;;;;;;;;;;;;;;;5131295;27;19962;-68
2024/01/21 11:26:05;;;;;;;;;;;;;;;;;;5150467;27;19926;-69
2024/01/21 11:28:31;;;;;;;;;;;;;;;;;;5147042;27;19919;-69
2024/01/21 11:30:57;;;;;;;;;;;;;;;;;;5151725;27;19950;-69
2024/01/21 11:33:23;;;;;;;;;;;;;;;;;;5151585;27;19963;-69
2024/01/21 11:35:49;;;;;;;;;;;;;;;;;;5109355;27;19997;-70
2024/01/21 11:38:15;;;;;;;;;;;;;;;;;;5130504;27;19919;-69
2024/01/21 11:40:41;;;;;;;;;;;;;;;;;;5148305;27;20758;-69
2024/01/21 11:43:06;;;;;;;;;;;;;;;;;;5146093;27;19931;-69
2024/01/21 11:45:32;;;;;;;;;;;;;;;;;;5129661;27;20349;-69
2024/01/21 11:47:58;;;;;;;;;;;;;;;;;;5131403;27;19919;-69
2024/01/21 11:50:24;;;;;;;;;;;;;;;;;;5144570;27;20018;-69
2024/01/21 11:52:50;;;;;;;;;;;;;;;;;;5145795;27;19919;-69
2024/01/21 11:55:16;;;;;;;;;;;;;;;;;;5147182;27;19930;-69
2024/01/21 11:57:42;;;;;;;;;;;;;;;;;;5145129;27;19975;-70
2024/01/21 12:00:08;;;;;;;;;;;;;;;;;;5148355;27;20283;-69
2024/01/21 12:02:34;;;;;;;;;;;;;;;;;;5106288;27;19976;-70
2024/01/21 12:05:00;;;;;;;;;;;;;;;;;;5140095;27;19919;-69
2024/01/21 12:07:27;;;;;;;;;;;;;;;;;;5124096;27;19953;-69
2024/01/21 12:09:53;;;;;;;;;;;;;;;;;;5115907;27;19950;-68
2024/01/21 12:12:19;;;;;;;;;;;;;;;;;;5129142;27;19919;-68
2024/01/21 12:14:45;;;;;;;;;;;;;;;;;;5149778;27;19922;-68
2024/01/21 12:17:11;;;;;;;;;;;;;;;;;;5131623;27;19919;-70
2024/01/21 12:19:37;;;;;;;;;;;;;;;;;;5142602;27;20013;-69
2024/01/21 12:22:03;;;;;;;;;;;;;;;;;;5150764;27;20011;-70
2024/01/21 12:24:29;;;;;;;;;;;;;;;;;;5109904;27;20328;-69
2024/01/21 12:26:55;;;;;;;;;;;;;;;;;;5145476;27;20013;-69
2024/01/21 12:29:21;;;;;;;;;;;;;;;;;;5115060;27;20349;-69
2024/01/21 12:31:48;;;;;;;;;;;;;;;;;;5148976;27;19935;-69
2024/01/21 12:34:14;;;;;;;;;;;;;;;;;;5148750;27;20375;-69
2024/01/21 12:36:49;;;;;;;;;;;;;;;;;;5149221;27;19927;-69
2024/01/21 12:39:15;;;;;;;;;;;;;;;;;;5147151;27;19976;-69
2024/01/21 12:41:41;;;;;;;;;;;;;;;;;;5152738;27;19919;-69
2024/01/21 12:44:07;;;;;;;;;;;;;;;;;;5145772;27;20387;-68
2024/01/21 12:46:33;;;;;;;;;;;;;;;;;;5149433;27;19923;-69
2024/01/21 12:48:58;;;;;;;;;;;;;;;;;;5136286;27;19923;-69
2024/01/21 12:51:25;;;;;;;;;;;;;;;;;;5132364;27;20022;-69
2024/01/21 12:53:51;;;;;;;;;;;;;;;;;;5155693;27;19943;-69
2024/01/21 12:56:17;;;;;;;;;;;;;;;;;;5129427;27;20342;-69
2024/01/21 12:58:43;;;;;;;;;;;;;;;;;;5122124;27;19998;-69
2024/01/21 13:01:10;;;;;;;;;;;;;;;;;;5119332;27;19935;-69
2024/01/21 13:03:35;;;;;;;;;;;;;;;;;;5127795;27;20011;-69
2024/01/21 13:06:03;;;;;;;;;;;;;;;;;;5126874;27;19923;-69
2024/01/21 13:08:29;;;;;;;;;;;;;;;;;;5126622;27;19923;-69
2024/01/21 13:10:55;;;;;;;;;;;;;;;;;;5130257;27;20435;-69
2024/01/21 13:13:21;;;;;;;;;;;;;;;;;;5128791;27;20014;-70
2024/01/21 13:15:47;;;;;;;;;;;;;;;;;;5119446;27;20048;-70
2024/01/21 13:18:13;;;;;;;;;;;;;;;;;;5128375;27;20018;-69
2024/01/21 13:20:39;;;;;;;;;;;;;;;;;;5129807;27;20016;-70
2024/01/21 13:23:05;;;;;;;;;;;;;;;;;;5126465;27;20384;-69
2024/01/21 13:25:31;;;;;;;;;;;;;;;;;;5132320;27;20013;-69
2024/01/21 13:28:13;;;;;;;;;;;;;;;;;;5127457;27;19927;-69
2024/01/21 13:30:43;;;;;;;;;;;;;;;;;;5128493;27;19935;-70
2024/01/21 13:33:09;;;;;;;;;;;;;;;;;;5123092;27;20000;-69
2024/01/21 13:35:35;;;;;;;;;;;;;;;;;;5133589;27;20381;-69
2024/01/21 13:38:01;;;;;;;;;;;;;;;;;;5127290;27;19924;-70
2024/01/21 13:40:27;;;;;;;;;;;;;;;;;;5127100;27;19924;-69
2024/01/21 13:42:54;;;;;;;;;;;;;;;;;;5127457;27;19980;-70
2024/01/21 13:45:20;;;;;;;;;;;;;;;;;;5126568;27;20044;-70
2024/01/21 13:47:46;;;;;;;;;;;;;;;;;;5130689;27;19928;-69
2024/01/21 13:50:12;;;;;;;;;;;;;;;;;;5127067;27;20354;-70
2024/01/21 13:52:38;;;;;;;;;;;;;;;;;;5119305;27;21254;-70
2024/01/21 13:55:07;;;;;;;;;;;;;;;;;;5125666;27;19919;-69
2024/01/21 13:57:33;;;;;;;;;;;;;;;;;;5137637;27;19923;-69
2024/01/21 13:59:59;;;;;;;;;;;;;;;;;;5128987;27;20002;-69
2024/01/21 14:02:25;;;;;;;;;;;;;;;;;;5132546;27;19919;-69
2024/01/21 14:04:51;;;;;;;;;;;;;;;;;;5151998;27;19923;-69
2024/01/21 14:07:17;;;;;;;;;;;;;;;;;;5145188;27;19963;-70
2024/01/21 14:09:43;;;;;;;;;;;;;;;;;;5151708;27;19975;-69
2024/01/21 14:12:09;;;;;;;;;;;;;;;;;;5152028;27;19923;-69
2024/01/21 14:14:36;;;;;;;;;;;;;;;;;;5148185;27;19934;-69
2024/01/21 14:17:02;;;;;;;;;;;;;;;;;;5148994;27;20631;-69
2024/01/21 14:19:28;;;;;;;;;;;;;;;;;;5150356;27;20010;-70
2024/01/21 14:21:53;;;;;;;;;;;;;;;;;;5153082;27;20400;-69
2024/01/21 14:24:19;;;;;;;;;;;;;;;;;;5149013;27;20038;-69
2024/01/21 14:26:45;;;;;;;;;;;;;;;;;;5112326;27;20009;-69
2024/01/21 14:29:11;;;;;;;;;;;;;;;;;;5128856;27;20383;-69
2024/01/21 14:31:39;;;;;;;;;;;;;;;;;;5148628;27;19933;-69
2024/01/21 14:34:05;;;;;;;;;;;;;;;;;;5152154;27;19996;-70
2024/01/21 14:36:31;;;;;;;;;;;;;;;;;;5135320;27;19923;-70
2024/01/21 14:38:57;;;;;;;;;;;;;;;;;;5113026;27;20007;-69
2024/01/21 14:41:23;;;;;;;;;;;;;;;;;;5150150;27;20516;-69
2024/01/21 14:43:49;;;;;;;;;;;;;;;;;;5153842;27;19919;-69
2024/01/21 14:46:15;;;;;;;;;;;;;;;;;;5147533;27;19927;-69
2024/01/21 14:48:41;;;;;;;;;;;;;;;;;;5147743;27;19981;-70
2024/01/21 14:51:07;;;;;;;;;;;;;;;;;;5143475;27;19970;-69
2024/01/21 14:53:33;;;;;;;;;;;;;;;;;;5152403;27;20404;-69
2024/01/21 14:56:00;;;;;;;;;;;;;;;;;;5150921;27;20030;-68
2024/01/21 14:58:26;;;;;;;;;;;;;;;;;;5154158;27;19926;-69
2024/01/21 15:00:52;;;;;;;;;;;;;;;;;;5150322;27;19923;-69
2024/01/21 15:03:18;;;;;;;;;;;;;;;;;;5145575;27;19923;-69
2024/01/21 15:05:44;;;;;;;;;;;;;;;;;;5130752;27;19919;-69
2024/01/21 15:08:10;;;;;;;;;;;;;;;;;;5129493;27;20416;-69
2024/01/21 15:10:36;;;;;;;;;;;;;;;;;;5125021;27;19927;-69
2024/01/21 15:13:05;;;;;;;;;;;;;;;;;;5124616;22;19930;-68
2024/01/21 15:15:31;;;;;;;;;;;;;;;;;;5099776;28;19934;-68
2024/01/21 15:17:57;;;;;;;;;;;;;;;;;;5103203;28;19934;-68
2024/01/21 15:20:23;;;;;;;;;;;;;;;;;;5104600;27;20417;-68
2024/01/21 15:22:49;;;;;;;;;;;;;;;;;;5114611;28;19923;-68
2024/01/21 15:25:15;;;;;;;;;;;;;;;;;;5106995;28;20291;-68
2024/01/21 15:27:41;;;;;;;;;;;;;;;;;;5087738;28;19923;-68
2024/01/21 15:30:07;;;;;;;;;;;;;;;;;;5114640;28;19920;-68
2024/01/21 15:32:33;;;;;;;;;;;;;;;;;;5090558;28;20559;-68
2024/01/21 15:34:59;;;;;;;;;;;;;;;;;;5101070;28;19980;-69
2024/01/21 15:37:25;;;;;;;;;;;;;;;;;;5101365;28;19930;-68
2024/01/21 15:39:52;;;;;;;;;;;;;;;;;;5104631;28;19972;-68
2024/01/21 15:42:18;;;;;;;;;;;;;;;;;;5088133;28;19928;-68
2024/01/21 15:44:44;;;;;;;;;;;;;;;;;;5087969;28;20245;-68
2024/01/21 15:47:10;;;;;;;;;;;;;;;;;;5101455;28;19924;-68
2024/01/21 15:49:38;;;;;;;;;;;;;;;;;;5086148;28;19931;-68
2024/01/21 15:52:04;;;;;;;;;;;;;;;;;;5105059;28;19931;-68
2024/01/21 15:54:29;;;;;;;;;;;;;;;;;;5089784;28;19924;-68
2024/01/21 15:56:55;;;;;;;;;;;;;;;;;;5087778;28;20410;-69
2024/01/21 15:59:21;;;;;;;;;;;;;;;;;;5103679;28;19920;-68
2024/01/21 16:01:47;;;;;;;;;;;;;;;;;;5103945;28;19922;-68
2024/01/21 16:04:13;;;;;;;;;;;;;;;;;;5082957;28;19969;-68
2024/01/21 16:06:39;;;;;;;;;;;;;;;;;;5082951;28;19955;-68
2024/01/21 16:09:05;;;;;;;;;;;;;;;;;;5103642;28;19920;-67
2024/01/21 16:11:32;;;;;;;;;;;;;;;;;;5103755;28;19950;-67
2024/01/21 16:13:58;;;;;;;;;;;;;;;;;;5104020;28;19934;-68
2024/01/21 16:16:24;;;;;;;;;;;;;;;;;;5110177;27;19919;-68
2024/01/21 16:18:51;;;;;;;;;;;;;;;;;;5091282;28;19946;-68
2024/01/21 16:21:17;;;;;;;;;;;;;;;;;;5102488;27;19919;-67
2024/01/21 16:23:43;;;;;;;;;;;;;;;;;;5104171;27;20378;-69
2024/01/21 16:26:08;;;;;;;;;;;;;;;;;;5104787;28;20027;-68
2024/01/21 16:28:34;;;;;;;;;;;;;;;;;;5111598;27;19979;-68
2024/01/21 16:31:00;;;;;;;;;;;;;;;;;;5109136;27;19931;-68
2024/01/21 16:33:26;;;;;;;;;;;;;;;;;;5112754;27;19920;-68
2024/01/21 16:35:52;;;;;;;;;;;;;;;;;;5095263;28;20589;-68
2024/01/21 16:38:18;;;;;;;;;;;;;;;;;;5107872;27;19928;-68